الصفحة الرئيسية
METAR-TAF:

METAR-TAF

مطار :

سكاكا, السعودية

مطار الجوف المحلي

دائرة عرض: 29-47N, خط طول: 040-06E, ارتفاع: 689 متر

مراقبة الطقس الحالي

تاريخ ووقت الإصدار 45 دقيقة قبل الساعة 15:00UTC
ريح 7 عقدة من الجنوب الغربي
درجة الحرارة 35°درجة مئوية
الرطوبة 9%
ضغط 1012 hPa
الرؤية 10 كم أو أكثر
الغيوم لا تقل 1500 م ولا وجود لمزنة ركامية السحاب الأسود

METAR: OESK 271500Z 23007KT CAVOK 35/M03 Q1012 NOSIG

زمن: 18:45 (15:45 UTC)

توقعات

تاريخ ووقت الإصدار 4ساعات و 45 دقيقة قبل الساعة 11:00UTC
التوقعات صالحة من27 الساعة 12 UTC إلى 28 الساعة 18 UTC
ريح 14 عقدة من الغرب/الشمال الغربي
الرؤية: 7000 متر
مؤقت
من 27 الساعة 12 UTC إلى 27 الساعة 18 UTC
الرؤية: 4000 متر
غبار
أصبح
من 27 الساعة 20 UTC إلى 27 الساعة 22 UTC
ريح 3 عقدةمن اتجاهات متغيرة

TAF: OESK 271100Z 2712/2818 30014KT 7000 NSC TEMPO 2712/2718 4000 DU BECMG 2720/2722 VRB03KT

أرصاد الطقس والتوقعات من أكثر من 4000 مطار (تقارير الطقس للمطار METAR والتنبؤ بالطقس بالمطارTAF).

المحطات المتاحة هي النقط الصفراء والحمراء على الخريطة.

حرك المؤشر فوق النقطة لمعرفة اسم المحطة.

ثم انقر لمعرفة أرصاد وتوقعات الطقس.

لتغيير الخارطة: اضغط على الأزرار الخضراء مع رمز الصليب الأسود للتكبير. على الزر الأخضر مع شرطة للتصغير، أو على الأسهم الخضراء للخرائط المجاورة.


METAR-TAF: